createdAt,value
2023-04-16T00:01:03.388Z,17.61
2023-04-16T00:03:30.432Z,17.58
2023-04-16T00:05:57.269Z,17.50
2023-04-16T00:08:26.912Z,17.52
2023-04-16T00:10:54.115Z,17.75
2023-04-16T00:13:21.104Z,17.65
2023-04-16T00:15:47.737Z,17.85
2023-04-16T00:18:14.376Z,17.78
2023-04-16T00:20:41.066Z,17.64
2023-04-16T00:23:07.735Z,17.65
2023-04-16T00:25:34.422Z,17.34
2023-04-16T00:28:01.110Z,16.22
2023-04-16T00:30:29.515Z,16.95
2023-04-16T00:32:56.210Z,17.30
2023-04-16T00:35:23.173Z,17.16
2023-04-16T00:37:49.878Z,17.19
2023-04-16T00:40:16.641Z,17.17
2023-04-16T00:42:43.318Z,17.32
2023-04-16T00:45:10.461Z,17.03
2023-04-16T00:47:37.182Z,16.60
2023-04-16T00:50:04.603Z,16.67
2023-04-16T00:52:34.602Z,16.52
2023-04-16T00:55:01.406Z,16.86
2023-04-16T00:57:28.064Z,16.78
2023-04-16T00:59:54.948Z,16.79
2023-04-16T01:02:21.669Z,16.77
2023-04-16T01:04:50.777Z,16.94
2023-04-16T01:07:17.502Z,16.94
2023-04-16T01:09:44.208Z,17.01
2023-04-16T01:12:10.969Z,16.86
2023-04-16T01:14:37.688Z,16.85
2023-04-16T01:17:04.561Z,16.88
2023-04-16T01:19:31.416Z,16.73
2023-04-16T01:21:58.888Z,16.42
2023-04-16T01:24:25.593Z,16.29
2023-04-16T01:26:52.232Z,16.25
2023-04-16T01:29:19.232Z,16.29
2023-04-16T01:31:46.935Z,16.12
2023-04-16T01:34:23.300Z,16.02
2023-04-16T01:36:49.985Z,16.19
2023-04-16T01:39:17.242Z,16.49
2023-04-16T01:41:44.038Z,15.81
2023-04-16T01:44:10.923Z,15.43
2023-04-16T01:46:37.863Z,16.01
2023-04-16T01:49:05.036Z,16.20
2023-04-16T01:51:32.330Z,16.11
2023-04-16T01:53:58.994Z,16.29
2023-04-16T01:56:26.257Z,16.35
2023-04-16T01:58:53.209Z,16.23
2023-04-16T02:01:20.045Z,16.15
2023-04-16T02:03:47.762Z,16.18
2023-04-16T02:06:15.585Z,15.98
2023-04-16T02:08:42.356Z,16.09
2023-04-16T02:11:09.153Z,16.21
2023-04-16T02:13:36.486Z,16.35
2023-04-16T02:16:03.429Z,16.25
2023-04-16T02:19:05.411Z,16.12
2023-04-16T02:21:35.281Z,16.22
2023-04-16T02:24:02.188Z,15.96
2023-04-16T02:26:30.652Z,16.22
2023-04-16T02:29:03.511Z,16.19
2023-04-16T02:31:38.387Z,16.10
2023-04-16T02:34:06.067Z,16.45
2023-04-16T02:36:32.710Z,16.21
2023-04-16T02:39:00.484Z,16.30
2023-04-16T02:41:27.116Z,16.24
2023-04-16T02:43:53.832Z,16.30
2023-04-16T02:46:21.627Z,16.34
2023-04-16T02:48:49.896Z,16.31
2023-04-16T02:51:16.572Z,16.32
2023-04-16T02:53:46.264Z,16.00
2023-04-16T02:56:13.624Z,16.18
2023-04-16T02:58:40.566Z,16.13
2023-04-16T03:01:07.604Z,16.14
2023-04-16T03:03:34.457Z,16.07
2023-04-16T03:06:01.210Z,15.99
2023-04-16T03:08:27.889Z,16.01
2023-04-16T03:10:54.630Z,15.97
2023-04-16T03:13:22.570Z,16.01
2023-04-16T03:15:49.786Z,15.85
2023-04-16T03:18:16.703Z,15.84
2023-04-16T03:20:43.416Z,15.76
2023-04-16T03:23:11.489Z,15.83
2023-04-16T03:25:40.613Z,15.80
2023-04-16T03:28:08.790Z,15.83
2023-04-16T03:30:35.695Z,15.74
2023-04-16T03:33:03.570Z,15.78
2023-04-16T03:35:30.479Z,15.65
2023-04-16T03:37:57.089Z,15.63
2023-04-16T03:40:24.037Z,15.62
2023-04-16T03:42:52.332Z,15.71
2023-04-16T03:45:19.996Z,15.64
2023-04-16T03:47:52.656Z,15.66
2023-04-16T03:50:22.354Z,15.51
2023-04-16T03:52:49.528Z,15.55
2023-04-16T03:55:17.510Z,15.54
2023-04-16T03:57:44.958Z,15.52
2023-04-16T04:00:14.942Z,15.54
2023-04-16T04:02:46.777Z,15.66
2023-04-16T04:05:18.564Z,15.61
2023-04-16T04:07:46.683Z,15.66
2023-04-16T04:10:14.449Z,15.67
2023-04-16T04:12:42.103Z,15.63
2023-04-16T04:15:09.119Z,15.60
2023-04-16T04:17:35.797Z,15.63
2023-04-16T04:20:02.741Z,15.56
2023-04-16T04:22:31.192Z,15.62
2023-04-16T04:24:58.004Z,15.57
2023-04-16T04:27:26.358Z,15.62
2023-04-16T04:29:53.315Z,15.51
2023-04-16T04:32:21.224Z,15.54
2023-04-16T04:34:49.113Z,15.59
2023-04-16T04:37:15.978Z,15.58
2023-04-16T04:39:43.848Z,15.63
2023-04-16T04:42:12.352Z,15.63
2023-04-16T04:44:39.232Z,15.63
2023-04-16T04:47:06.477Z,15.62
2023-04-16T04:49:33.044Z,15.59
2023-04-16T04:51:59.784Z,15.71
2023-04-16T04:54:26.443Z,15.64
2023-04-16T04:56:53.711Z,15.36
2023-04-16T04:59:20.993Z,15.38
2023-04-16T05:01:47.806Z,15.55
2023-04-16T05:04:14.522Z,15.51
2023-04-16T05:06:41.523Z,15.37
2023-04-16T05:09:12.005Z,15.57
2023-04-16T05:11:39.279Z,15.57
2023-04-16T05:14:06.050Z,15.81
2023-04-16T05:16:32.721Z,15.68
2023-04-16T05:18:59.560Z,15.49
2023-04-16T05:21:26.568Z,15.15
2023-04-16T05:23:53.340Z,15.42
2023-04-16T05:26:20.163Z,15.45
2023-04-16T05:28:46.914Z,15.35
2023-04-16T05:31:13.537Z,15.58
2023-04-16T05:33:40.397Z,15.84
2023-04-16T05:36:07.141Z,15.72
2023-04-16T05:38:33.881Z,15.67
2023-04-16T05:41:00.605Z,15.87
2023-04-16T05:43:27.271Z,15.57
2023-04-16T05:45:53.906Z,15.35
2023-04-16T05:48:20.545Z,15.61
2023-04-16T05:50:47.232Z,15.30
2023-04-16T05:53:14.318Z,15.66
2023-04-16T05:55:41.132Z,15.94
2023-04-16T05:58:07.834Z,15.82
2023-04-16T06:00:34.757Z,15.80
2023-04-16T06:03:02.381Z,15.36
2023-04-16T06:05:30.190Z,15.78
2023-04-16T06:07:56.964Z,16.28
2023-04-16T06:10:23.648Z,16.38
2023-04-16T06:12:50.496Z,15.22
2023-04-16T06:15:17.149Z,15.11
2023-04-16T06:17:43.852Z,15.95
2023-04-16T06:20:11.228Z,16.29
2023-04-16T06:22:37.856Z,15.90
2023-04-16T06:25:04.887Z,15.81
2023-04-16T06:27:31.540Z,16.00
2023-04-16T06:29:58.607Z,15.77
2023-04-16T06:32:25.282Z,15.43
2023-04-16T06:34:52.004Z,16.03
2023-04-16T06:37:18.579Z,16.29
2023-04-16T06:39:45.364Z,16.54
2023-04-16T06:42:12.016Z,15.97
2023-04-16T06:44:38.842Z,16.29
2023-04-16T06:47:05.536Z,15.93
2023-04-16T06:49:32.321Z,16.77
2023-04-16T06:51:58.945Z,17.13
2023-04-16T06:54:25.615Z,17.06
2023-04-16T06:56:53.186Z,17.07
2023-04-16T06:59:19.927Z,16.06
2023-04-16T07:01:46.502Z,16.78
2023-04-16T07:04:13.178Z,17.29
2023-04-16T07:06:40.822Z,17.49
2023-04-16T07:09:07.539Z,17.00
2023-04-16T07:11:34.403Z,16.96
2023-04-16T07:14:02.092Z,17.14
2023-04-16T07:16:28.738Z,17.52
2023-04-16T07:18:56.462Z,17.35
2023-04-16T07:21:23.088Z,16.40
2023-04-16T07:23:49.828Z,16.99
2023-04-16T07:26:16.420Z,16.76
2023-04-16T07:28:42.945Z,16.84
2023-04-16T07:31:09.610Z,16.88
2023-04-16T07:33:37.285Z,17.48
2023-04-16T07:36:06.512Z,17.35
2023-04-16T07:38:34.664Z,17.60
2023-04-16T07:41:01.784Z,17.79
2023-04-16T07:43:28.452Z,17.20
2023-04-16T07:45:55.220Z,16.65
2023-04-16T07:48:22.025Z,17.69
2023-04-16T07:50:50.113Z,18.18
2023-04-16T07:53:16.729Z,17.65
2023-04-16T07:55:44.952Z,17.67
2023-04-16T07:58:11.540Z,17.78
2023-04-16T08:00:38.256Z,18.28
2023-04-16T08:03:05.002Z,18.29
2023-04-16T08:05:31.836Z,18.00
2023-04-16T08:07:58.476Z,18.30
2023-04-16T08:10:25.214Z,18.65
2023-04-16T08:12:51.795Z,18.77
2023-04-16T08:15:18.515Z,18.40
2023-04-16T08:17:45.628Z,19.20
2023-04-16T08:20:15.189Z,19.62
2023-04-16T08:22:43.712Z,19.36
2023-04-16T08:25:10.593Z,19.17
2023-04-16T08:27:37.616Z,19.95
2023-04-16T08:30:04.555Z,19.03
2023-04-16T08:32:31.365Z,19.20
2023-04-16T08:34:58.016Z,19.34
2023-04-16T08:37:25.185Z,19.20
2023-04-16T08:39:51.797Z,19.61
2023-04-16T08:42:44.829Z,19.96
2023-04-16T08:45:11.674Z,20.40
2023-04-16T08:47:38.748Z,20.54
2023-04-16T08:50:06.141Z,20.51
2023-04-16T08:52:33.089Z,20.71
2023-04-16T08:54:59.807Z,21.11
2023-04-16T08:57:30.937Z,21.29
2023-04-16T08:59:58.243Z,20.90
2023-04-16T09:02:44.831Z,20.89
2023-04-16T09:05:14.415Z,21.39
2023-04-16T09:07:41.667Z,20.46
2023-04-16T09:10:08.649Z,20.01
2023-04-16T09:12:35.872Z,20.56
2023-04-16T09:15:03.529Z,20.60
2023-04-16T09:17:30.368Z,21.00
2023-04-16T09:19:59.324Z,20.82
2023-04-16T09:22:26.217Z,20.81
2023-04-16T09:24:52.878Z,20.94
2023-04-16T09:27:19.923Z,20.89
2023-04-16T09:29:46.860Z,20.82
2023-04-16T09:32:14.442Z,20.91
2023-04-16T09:34:53.583Z,21.05
2023-04-16T09:37:20.540Z,21.76
2023-04-16T09:39:54.758Z,21.61
2023-04-16T09:42:25.709Z,21.52
2023-04-16T09:44:52.473Z,21.91
2023-04-16T09:47:19.229Z,22.31
2023-04-16T09:49:47.134Z,21.76
2023-04-16T09:52:18.410Z,21.39
2023-04-16T09:54:48.027Z,21.86
2023-04-16T09:57:15.144Z,21.33
2023-04-16T09:59:42.004Z,21.49
2023-04-16T10:02:14.354Z,20.93
2023-04-16T10:04:45.676Z,21.09
2023-04-16T10:07:13.735Z,21.04
2023-04-16T10:09:40.846Z,20.26
2023-04-16T10:12:07.688Z,20.91
2023-04-16T10:14:34.827Z,21.10
2023-04-16T10:17:03.225Z,21.32
2023-04-16T10:19:32.757Z,20.88
2023-04-16T10:21:59.781Z,21.02
2023-04-16T10:24:26.545Z,21.63
2023-04-16T10:26:53.340Z,21.41
2023-04-16T10:29:20.787Z,20.97
2023-04-16T10:31:48.217Z,21.22
2023-04-16T10:34:15.060Z,21.02
2023-04-16T10:36:41.780Z,21.57
2023-04-16T10:39:14.799Z,22.07
2023-04-16T10:41:45.010Z,21.91
2023-04-16T10:44:11.769Z,22.40
2023-04-16T10:46:39.723Z,23.00
2023-04-16T10:49:17.752Z,22.73
2023-04-16T10:51:53.089Z,23.26
2023-04-16T10:54:21.261Z,22.92
2023-04-16T10:56:48.026Z,23.37
2023-04-16T10:59:18.165Z,23.04
2023-04-16T11:01:46.368Z,22.63
2023-04-16T11:04:33.495Z,22.45
2023-04-16T11:07:04.728Z,22.51
2023-04-16T11:09:47.904Z,22.98
2023-04-16T11:12:16.365Z,23.06
2023-04-16T11:14:43.058Z,22.82
2023-04-16T11:17:10.257Z,22.36
2023-04-16T11:19:38.207Z,22.92
2023-04-16T11:22:05.339Z,22.80
2023-04-16T11:24:32.523Z,22.48
2023-04-16T11:26:59.438Z,22.75
2023-04-16T11:29:26.073Z,22.81
2023-04-16T11:31:53.681Z,22.97
2023-04-16T11:34:20.864Z,22.83
2023-04-16T11:36:48.615Z,22.17
2023-04-16T11:39:15.360Z,22.22
2023-04-16T11:41:50.556Z,22.48
2023-04-16T11:44:21.193Z,21.94
2023-04-16T11:46:48.250Z,21.58
2023-04-16T11:49:15.662Z,22.18
2023-04-16T11:51:43.238Z,22.01
2023-04-16T11:54:11.986Z,22.90
2023-04-16T11:56:39.152Z,22.80
2023-04-16T11:59:26.165Z,23.11
2023-04-16T12:01:55.817Z,23.17
2023-04-16T12:04:25.155Z,22.97
2023-04-16T12:07:11.091Z,23.45
2023-04-16T12:09:40.791Z,23.37
2023-04-16T12:12:27.491Z,23.35
2023-04-16T12:14:56.883Z,23.44
2023-04-16T12:17:23.742Z,23.04
2023-04-16T12:19:56.077Z,22.83
2023-04-16T12:22:28.684Z,22.74
2023-04-16T12:24:57.004Z,22.42
2023-04-16T12:27:28.548Z,22.88
2023-04-16T12:30:07.402Z,23.23
2023-04-16T12:32:34.298Z,23.12
2023-04-16T12:35:01.270Z,22.67
2023-04-16T12:37:28.008Z,23.06
2023-04-16T12:39:54.803Z,22.61
2023-04-16T12:42:21.711Z,22.58
2023-04-16T12:44:48.313Z,22.74
2023-04-16T12:47:16.327Z,22.38
2023-04-16T12:49:44.504Z,22.64
2023-04-16T12:52:11.140Z,22.45
2023-04-16T12:54:38.312Z,22.60
2023-04-16T12:57:05.061Z,22.70
2023-04-16T12:59:31.809Z,22.60
2023-04-16T13:02:00.895Z,22.65
2023-04-16T13:04:28.006Z,22.61
2023-04-16T13:06:54.831Z,22.32
2023-04-16T13:09:21.471Z,22.41
2023-04-16T13:11:48.223Z,21.75
2023-04-16T13:14:14.838Z,21.56
2023-04-16T13:16:41.523Z,21.88
2023-04-16T13:19:08.682Z,21.50
2023-04-16T13:21:35.985Z,21.23
2023-04-16T13:24:03.157Z,20.74
2023-04-16T13:26:30.835Z,21.30
2023-04-16T13:28:57.458Z,21.11
2023-04-16T13:31:24.443Z,20.67
2023-04-16T13:33:51.120Z,21.13
2023-04-16T13:36:17.837Z,21.08
2023-04-16T13:38:44.564Z,21.09
2023-04-16T13:41:11.285Z,21.15
2023-04-16T13:43:37.920Z,20.40
2023-04-16T13:46:04.774Z,20.91
2023-04-16T13:48:31.557Z,20.44
2023-04-16T13:51:00.027Z,20.78
2023-04-16T13:53:26.730Z,20.32
2023-04-16T13:55:53.441Z,20.26
2023-04-16T13:58:20.478Z,21.38
2023-04-16T14:00:47.484Z,21.56
2023-04-16T14:03:15.629Z,21.63
2023-04-16T14:05:43.168Z,21.85
2023-04-16T14:08:10.205Z,21.95
2023-04-16T14:10:36.840Z,21.05
2023-04-16T14:13:03.683Z,21.60
2023-04-16T14:15:30.484Z,21.59
2023-04-16T14:17:57.348Z,21.28
2023-04-16T14:20:24.233Z,21.39
2023-04-16T14:22:51.482Z,20.64
2023-04-16T14:25:18.524Z,20.53
2023-04-16T14:27:45.282Z,20.56
2023-04-16T14:30:12.108Z,20.11
2023-04-16T14:32:38.777Z,20.01
2023-04-16T14:35:05.823Z,20.04
2023-04-16T14:37:32.518Z,19.94
2023-04-16T14:39:59.925Z,19.73
2023-04-16T14:42:27.200Z,20.06
2023-04-16T14:44:53.809Z,19.90
2023-04-16T14:47:20.373Z,19.61
2023-04-16T14:49:47.110Z,19.93
2023-04-16T14:52:13.699Z,19.60
2023-04-16T14:54:40.420Z,19.11
2023-04-16T14:57:07.138Z,19.26
2023-04-16T14:59:34.848Z,19.43
2023-04-16T15:02:01.533Z,18.82
2023-04-16T15:04:29.828Z,18.90
2023-04-16T15:06:59.074Z,18.89
2023-04-16T15:09:27.454Z,18.99
2023-04-16T15:11:54.293Z,18.96
2023-04-16T15:14:21.489Z,19.12
2023-04-16T15:16:48.753Z,19.03
2023-04-16T15:19:15.557Z,18.94
2023-04-16T15:21:42.264Z,18.59
2023-04-16T15:24:09.107Z,18.55
2023-04-16T15:26:36.180Z,18.46
2023-04-16T15:29:04.315Z,19.08
2023-04-16T15:31:31.144Z,19.03
2023-04-16T15:33:59.638Z,19.15
2023-04-16T15:36:26.865Z,18.42
2023-04-16T15:38:53.716Z,18.44
2023-04-16T15:41:20.528Z,18.54
2023-04-16T15:43:47.193Z,17.80
2023-04-16T15:46:15.018Z,18.00
2023-04-16T15:48:41.974Z,18.39
2023-04-16T15:51:08.714Z,17.63
2023-04-16T15:53:35.463Z,17.97
2023-04-16T15:56:02.138Z,18.34
2023-04-16T15:58:28.866Z,18.19
2023-04-16T16:00:55.587Z,18.13
2023-04-16T16:03:22.352Z,17.92
2023-04-16T16:05:49.228Z,17.63
2023-04-16T16:08:16.030Z,17.86
2023-04-16T16:10:43.125Z,17.31
2023-04-16T16:13:13.171Z,17.79
2023-04-16T16:15:41.389Z,17.53
2023-04-16T16:18:08.072Z,17.79
2023-04-16T16:20:35.181Z,17.28
2023-04-16T16:23:02.041Z,17.77
2023-04-16T16:25:30.245Z,18.42
2023-04-16T16:27:56.821Z,18.34
2023-04-16T16:30:23.540Z,18.12
2023-04-16T16:32:50.896Z,18.09
2023-04-16T16:35:17.543Z,18.10
2023-04-16T16:37:44.334Z,17.95
2023-04-16T16:40:11.361Z,18.03
2023-04-16T16:42:37.963Z,18.36
2023-04-16T16:45:06.171Z,18.73
2023-04-16T16:47:33.055Z,18.16
2023-04-16T16:50:02.167Z,18.39
2023-04-16T16:52:29.644Z,17.65
2023-04-16T16:55:22.303Z,17.88
2023-04-16T16:57:49.347Z,17.92
2023-04-16T17:00:16.956Z,17.98
2023-04-16T17:02:44.016Z,18.09
2023-04-16T17:05:11.057Z,17.79
2023-04-16T17:07:38.191Z,17.81
2023-04-16T17:10:08.100Z,16.91
2023-04-16T17:12:35.682Z,17.06
2023-04-16T17:15:03.242Z,17.50
2023-04-16T17:17:30.951Z,17.27
2023-04-16T17:19:57.759Z,17.33
2023-04-16T17:22:24.442Z,17.17
2023-04-16T17:24:53.158Z,16.54
2023-04-16T17:27:19.844Z,17.20
2023-04-16T17:29:46.558Z,16.68
2023-04-16T17:32:13.216Z,16.67
2023-04-16T17:34:39.758Z,16.72
2023-04-16T17:37:06.500Z,16.91
2023-04-16T17:39:33.194Z,17.51
2023-04-16T17:42:01.300Z,17.35
2023-04-16T17:44:28.140Z,17.56
2023-04-16T17:46:55.004Z,17.43
2023-04-16T17:49:21.999Z,17.54
2023-04-16T17:51:49.216Z,17.85
2023-04-16T17:54:15.902Z,17.57
2023-04-16T17:56:42.512Z,17.51
2023-04-16T17:59:09.173Z,17.39
2023-04-16T18:01:36.100Z,17.40
2023-04-16T18:04:03.024Z,17.05
2023-04-16T18:06:29.973Z,17.60
2023-04-16T18:08:56.810Z,17.50
2023-04-16T18:11:23.612Z,17.41
2023-04-16T18:13:52.496Z,17.31
2023-04-16T18:16:19.284Z,17.58
2023-04-16T18:18:46.329Z,17.28
2023-04-16T18:21:13.082Z,17.27
2023-04-16T18:23:39.692Z,17.40
2023-04-16T18:26:08.447Z,17.42
2023-04-16T18:31:05.587Z,16.96
2023-04-16T18:36:06.269Z,17.13
2023-04-16T18:38:32.992Z,16.96
2023-04-16T18:40:59.657Z,16.88
2023-04-16T18:43:26.336Z,17.13
2023-04-16T18:45:52.961Z,17.23
2023-04-16T18:48:19.701Z,17.48
2023-04-16T18:50:46.475Z,17.76
2023-04-16T18:53:13.064Z,17.54
2023-04-16T18:55:39.657Z,17.52
2023-04-16T18:58:06.297Z,17.62
2023-04-16T19:00:32.948Z,17.23
2023-04-16T19:02:59.814Z,17.12
2023-04-16T19:05:26.399Z,16.98
2023-04-16T19:07:53.210Z,17.30
2023-04-16T19:10:19.850Z,17.26
2023-04-16T19:12:47.493Z,16.98
2023-04-16T19:15:14.895Z,16.96
2023-04-16T19:17:41.844Z,16.40
2023-04-16T19:20:11.323Z,16.92
2023-04-16T19:22:38.625Z,16.89
2023-04-16T19:25:05.547Z,16.56
2023-04-16T19:27:32.242Z,16.61
2023-04-16T19:29:58.831Z,16.31
2023-04-16T19:32:25.577Z,16.28
2023-04-16T19:34:52.475Z,16.59
2023-04-16T19:37:19.369Z,16.22
2023-04-16T19:39:46.110Z,16.72
2023-04-16T19:42:12.758Z,16.87
2023-04-16T19:44:39.412Z,16.82
2023-04-16T19:47:06.660Z,16.66
2023-04-16T19:49:34.447Z,16.83
2023-04-16T19:52:01.453Z,16.78
2023-04-16T19:54:28.907Z,16.92
2023-04-16T19:56:55.603Z,17.01
2023-04-16T19:59:22.440Z,17.26
2023-04-16T20:01:49.208Z,17.45
2023-04-16T20:04:15.980Z,17.35
2023-04-16T20:06:42.725Z,17.43
2023-04-16T20:09:09.634Z,17.45
2023-04-16T20:11:36.764Z,17.67
2023-04-16T20:14:04.506Z,17.92
2023-04-16T20:16:31.658Z,17.76
2023-04-16T20:19:03.605Z,17.76
2023-04-16T20:21:32.316Z,17.41
2023-04-16T20:23:59.542Z,17.21
2023-04-16T20:26:28.431Z,17.59
2023-04-16T20:28:55.108Z,17.51
2023-04-16T20:31:21.916Z,17.51
2023-04-16T20:33:48.641Z,17.47
2023-04-16T20:36:15.525Z,17.42
2023-04-16T20:38:43.659Z,17.22
2023-04-16T20:41:11.009Z,17.38
2023-04-16T20:43:42.030Z,17.42
2023-04-16T20:46:10.968Z,17.35
2023-04-16T20:48:38.683Z,17.59
2023-04-16T20:51:07.895Z,17.46
2023-04-16T20:53:35.171Z,17.75
2023-04-16T20:56:01.940Z,17.69
2023-04-16T20:58:28.807Z,17.61
2023-04-16T21:00:56.147Z,17.82
2023-04-16T21:03:23.441Z,17.76
2023-04-16T21:05:53.851Z,17.84
2023-04-16T21:08:21.277Z,17.90
2023-04-16T21:10:48.063Z,17.75
2023-04-16T21:13:15.091Z,17.87
2023-04-16T21:15:42.765Z,17.34
2023-04-16T21:18:09.893Z,17.67
2023-04-16T21:20:36.860Z,17.70
2023-04-16T21:23:04.494Z,17.43
2023-04-16T21:25:31.850Z,17.58
2023-04-16T21:27:58.637Z,17.64
2023-04-16T21:30:25.402Z,17.48
2023-04-16T21:32:52.379Z,17.60
2023-04-16T21:35:19.095Z,17.53
2023-04-16T21:37:45.901Z,17.52
2023-04-16T21:40:12.515Z,17.55
2023-04-16T21:42:40.089Z,17.46
2023-04-16T21:45:07.877Z,17.59
2023-04-16T21:47:34.699Z,17.47
2023-04-16T21:50:01.427Z,17.36
2023-04-16T21:52:28.053Z,17.35
2023-04-16T21:54:54.781Z,17.12
2023-04-16T21:57:21.420Z,17.31
2023-04-16T21:59:48.155Z,17.35
2023-04-16T22:02:14.853Z,17.49
2023-04-16T22:04:43.606Z,17.39
2023-04-16T22:07:10.243Z,17.19
2023-04-16T22:09:37.331Z,17.23
2023-04-16T22:12:06.925Z,17.20
2023-04-16T22:14:36.764Z,17.31
2023-04-16T22:17:04.386Z,17.17
2023-04-16T22:19:31.232Z,17.41
2023-04-16T22:21:57.946Z,17.42
2023-04-16T22:24:24.667Z,17.43
2023-04-16T22:26:51.323Z,17.39
2023-04-16T22:29:17.967Z,17.47
2023-04-16T22:31:44.740Z,17.71
2023-04-16T22:34:11.462Z,17.68
2023-04-16T22:36:38.103Z,17.68
2023-04-16T22:39:08.770Z,17.62
2023-04-16T22:41:36.586Z,17.70
2023-04-16T22:44:03.489Z,17.67
2023-04-16T22:46:31.079Z,17.62
2023-04-16T22:48:57.890Z,17.58
2023-04-16T22:51:24.539Z,17.25
2023-04-16T22:53:51.859Z,17.35
2023-04-16T22:56:19.092Z,17.17
2023-04-16T22:58:46.286Z,17.32
2023-04-16T23:01:13.034Z,17.61
2023-04-16T23:03:39.715Z,17.22
2023-04-16T23:06:06.794Z,17.32
2023-04-16T23:08:33.807Z,17.18
2023-04-16T23:11:00.479Z,17.48
2023-04-16T23:13:27.032Z,17.54
2023-04-16T23:15:53.786Z,17.57
2023-04-16T23:18:20.530Z,17.59
2023-04-16T23:20:50.381Z,17.60
2023-04-16T23:23:17.087Z,17.77
2023-04-16T23:25:43.840Z,17.43
2023-04-16T23:28:10.747Z,17.34
2023-04-16T23:30:38.590Z,17.40
2023-04-16T23:33:05.437Z,17.45
2023-04-16T23:35:32.106Z,17.56
2023-04-16T23:37:59.232Z,17.50
2023-04-16T23:40:26.224Z,17.32
2023-04-16T23:42:52.951Z,17.15
2023-04-16T23:45:19.641Z,17.21
2023-04-16T23:47:46.985Z,17.28
2023-04-16T23:50:13.824Z,17.27
2023-04-16T23:52:40.422Z,17.03
2023-04-16T23:55:07.296Z,17.24
2023-04-16T23:57:33.992Z,17.31
